sensor_id;sensor_type;location;lat;lon;timestamp;P1;durP1;ratioP1;P2;durP2;ratioP2
12768;SDS011;6448;48.916;8.990;2023-03-23T00:00:45;0.80;;;0.80;;
12768;SDS011;6448;48.916;8.990;2023-03-23T00:01:47;0.90;;;0.90;;
12768;SDS011;6448;48.916;8.990;2023-03-23T00:02:49;0.80;;;0.80;;
12768;SDS011;6448;48.916;8.990;2023-03-23T00:03:50;0.80;;;0.80;;
12768;SDS011;6448;48.916;8.990;2023-03-23T00:04:53;0.90;;;0.90;;
12768;SDS011;6448;48.916;8.990;2023-03-23T00:05:54;0.90;;;0.90;;
12768;SDS011;6448;48.916;8.990;2023-03-23T00:07:00;0.80;;;0.80;;
12768;SDS011;6448;48.916;8.990;2023-03-23T00:08:03;0.82;;;0.82;;
12768;SDS011;6448;48.916;8.990;2023-03-23T00:09:05;1.17;;;0.95;;
12768;SDS011;6448;48.916;8.990;2023-03-23T00:10:06;0.80;;;0.80;;
12768;SDS011;6448;48.916;8.990;2023-03-23T00:11:08;0.75;;;0.75;;
12768;SDS011;6448;48.916;8.990;2023-03-23T00:12:09;0.75;;;0.75;;
12768;SDS011;6448;48.916;8.990;2023-03-23T00:13:15;1.00;;;0.90;;
12768;SDS011;6448;48.916;8.990;2023-03-23T00:14:19;0.80;;;0.80;;
12768;SDS011;6448;48.916;8.990;2023-03-23T00:15:22;0.80;;;0.80;;
12768;SDS011;6448;48.916;8.990;2023-03-23T00:16:25;0.88;;;0.88;;
12768;SDS011;6448;48.916;8.990;2023-03-23T00:17:30;0.80;;;0.80;;
12768;SDS011;6448;48.916;8.990;2023-03-23T00:18:33;1.00;;;0.90;;
12768;SDS011;6448;48.916;8.990;2023-03-23T00:19:35;0.80;;;0.80;;
12768;SDS011;6448;48.916;8.990;2023-03-23T00:20:45;0.80;;;0.80;;
12768;SDS011;6448;48.916;8.990;2023-03-23T00:21:49;0.75;;;0.75;;
12768;SDS011;6448;48.916;8.990;2023-03-23T00:22:54;0.95;;;0.80;;
12768;SDS011;6448;48.916;8.990;2023-03-23T00:24:03;1.02;;;0.93;;
12768;SDS011;6448;48.916;8.990;2023-03-23T00:25:07;0.80;;;0.80;;
12768;SDS011;6448;48.916;8.990;2023-03-23T00:26:08;0.88;;;0.88;;
12768;SDS011;6448;48.916;8.990;2023-03-23T00:27:10;0.80;;;0.80;;
12768;SDS011;6448;48.916;8.990;2023-03-23T00:28:12;1.00;;;0.90;;
12768;SDS011;6448;48.916;8.990;2023-03-23T00:29:15;0.80;;;0.80;;
12768;SDS011;6448;48.916;8.990;2023-03-23T00:30:18;1.38;;;0.93;;
12768;SDS011;6448;48.916;8.990;2023-03-23T00:31:20;1.00;;;0.90;;
12768;SDS011;6448;48.916;8.990;2023-03-23T00:32:21;0.90;;;0.90;;
12768;SDS011;6448;48.916;8.990;2023-03-23T00:33:29;0.70;;;0.70;;
12768;SDS011;6448;48.916;8.990;2023-03-23T00:34:33;0.80;;;0.80;;
12768;SDS011;6448;48.916;8.990;2023-03-23T00:35:35;0.98;;;0.90;;
12768;SDS011;6448;48.916;8.990;2023-03-23T00:36:36;0.90;;;0.90;;
12768;SDS011;6448;48.916;8.990;2023-03-23T00:37:43;0.90;;;0.90;;
12768;SDS011;6448;48.916;8.990;2023-03-23T00:38:45;0.80;;;0.80;;
12768;SDS011;6448;48.916;8.990;2023-03-23T00:39:48;0.88;;;0.88;;
12768;SDS011;6448;48.916;8.990;2023-03-23T00:40:49;0.95;;;0.90;;
12768;SDS011;6448;48.916;8.990;2023-03-23T00:41:51;1.10;;;0.90;;
12768;SDS011;6448;48.916;8.990;2023-03-23T00:42:53;0.88;;;0.88;;
12768;SDS011;6448;48.916;8.990;2023-03-23T00:43:55;0.90;;;0.90;;
12768;SDS011;6448;48.916;8.990;2023-03-23T00:44:57;0.95;;;0.90;;
12768;SDS011;6448;48.916;8.990;2023-03-23T00:46:01;0.90;;;0.90;;
12768;SDS011;6448;48.916;8.990;2023-03-23T00:47:02;1.20;;;0.93;;
12768;SDS011;6448;48.916;8.990;2023-03-23T00:48:05;1.30;;;1.20;;
12768;SDS011;6448;48.916;8.990;2023-03-23T00:49:05;0.93;;;0.90;;
12768;SDS011;6448;48.916;8.990;2023-03-23T00:50:09;0.90;;;0.90;;
12768;SDS011;6448;48.916;8.990;2023-03-23T00:51:12;1.30;;;1.00;;
12768;SDS011;6448;48.916;8.990;2023-03-23T00:52:15;0.90;;;0.90;;
12768;SDS011;6448;48.916;8.990;2023-03-23T00:53:16;0.82;;;0.82;;
12768;SDS011;6448;48.916;8.990;2023-03-23T00:54:20;0.90;;;0.90;;
12768;SDS011;6448;48.916;8.990;2023-03-23T00:55:23;0.90;;;0.90;;
12768;SDS011;6448;48.916;8.990;2023-03-23T00:56:25;1.10;;;1.00;;
12768;SDS011;6448;48.916;8.990;2023-03-23T00:57:26;0.95;;;0.90;;
12768;SDS011;6448;48.916;8.990;2023-03-23T00:58:31;0.80;;;0.80;;
12768;SDS011;6448;48.916;8.990;2023-03-23T00:59:32;1.17;;;1.02;;
12768;SDS011;6448;48.916;8.990;2023-03-23T01:00:34;1.02;;;0.90;;
12768;SDS011;6448;48.916;8.990;2023-03-23T01:01:36;0.88;;;0.88;;
12768;SDS011;6448;48.916;8.990;2023-03-23T01:02:38;0.90;;;0.90;;
12768;SDS011;6448;48.916;8.990;2023-03-23T01:03:40;0.90;;;0.90;;
12768;SDS011;6448;48.916;8.990;2023-03-23T01:04:42;1.00;;;0.90;;
12768;SDS011;6448;48.916;8.990;2023-03-23T01:05:45;1.02;;;1.00;;
12768;SDS011;6448;48.916;8.990;2023-03-23T01:06:48;0.93;;;0.93;;
12768;SDS011;6448;48.916;8.990;2023-03-23T01:07:50;0.90;;;0.82;;
12768;SDS011;6448;48.916;8.990;2023-03-23T01:08:52;1.00;;;0.90;;
12768;SDS011;6448;48.916;8.990;2023-03-23T01:09:55;1.00;;;0.90;;
12768;SDS011;6448;48.916;8.990;2023-03-23T01:11:01;0.80;;;0.80;;
12768;SDS011;6448;48.916;8.990;2023-03-23T01:12:06;0.85;;;0.80;;
12768;SDS011;6448;48.916;8.990;2023-03-23T01:13:08;0.90;;;0.90;;
12768;SDS011;6448;48.916;8.990;2023-03-23T01:14:09;1.17;;;0.90;;
12768;SDS011;6448;48.916;8.990;2023-03-23T01:15:15;1.00;;;1.00;;
12768;SDS011;6448;48.916;8.990;2023-03-23T01:16:16;1.00;;;1.00;;
12768;SDS011;6448;48.916;8.990;2023-03-23T01:17:18;1.00;;;0.90;;
12768;SDS011;6448;48.916;8.990;2023-03-23T01:18:21;0.90;;;0.90;;
12768;SDS011;6448;48.916;8.990;2023-03-23T01:19:22;1.00;;;0.90;;
12768;SDS011;6448;48.916;8.990;2023-03-23T01:20:24;1.10;;;0.95;;
12768;SDS011;6448;48.916;8.990;2023-03-23T01:21:28;0.90;;;0.90;;
12768;SDS011;6448;48.916;8.990;2023-03-23T01:22:31;1.10;;;0.98;;
12768;SDS011;6448;48.916;8.990;2023-03-23T01:23:33;0.80;;;0.80;;
12768;SDS011;6448;48.916;8.990;2023-03-23T01:24:34;1.10;;;0.90;;
12768;SDS011;6448;48.916;8.990;2023-03-23T01:25:38;0.95;;;0.90;;
12768;SDS011;6448;48.916;8.990;2023-03-23T01:26:38;0.90;;;0.90;;
12768;SDS011;6448;48.916;8.990;2023-03-23T01:27:40;0.80;;;0.80;;
12768;SDS011;6448;48.916;8.990;2023-03-23T01:28:42;1.10;;;1.00;;
12768;SDS011;6448;48.916;8.990;2023-03-23T01:29:44;0.98;;;0.95;;
12768;SDS011;6448;48.916;8.990;2023-03-23T01:30:46;1.00;;;0.95;;
12768;SDS011;6448;48.916;8.990;2023-03-23T01:31:48;0.88;;;0.88;;
12768;SDS011;6448;48.916;8.990;2023-03-23T01:32:50;0.80;;;0.80;;
12768;SDS011;6448;48.916;8.990;2023-03-23T01:33:53;0.90;;;0.90;;
12768;SDS011;6448;48.916;8.990;2023-03-23T01:34:55;1.10;;;1.00;;
12768;SDS011;6448;48.916;8.990;2023-03-23T01:35:57;1.10;;;1.00;;
12768;SDS011;6448;48.916;8.990;2023-03-23T01:37:01;1.00;;;1.00;;
12768;SDS011;6448;48.916;8.990;2023-03-23T01:38:03;1.00;;;1.00;;
12768;SDS011;6448;48.916;8.990;2023-03-23T01:39:05;1.10;;;1.00;;
12768;SDS011;6448;48.916;8.990;2023-03-23T01:40:08;1.10;;;1.00;;
12768;SDS011;6448;48.916;8.990;2023-03-23T01:41:12;1.15;;;1.05;;
12768;SDS011;6448;48.916;8.990;2023-03-23T01:42:15;1.10;;;1.00;;
12768;SDS011;6448;48.916;8.990;2023-03-23T01:43:18;0.80;;;0.80;;
12768;SDS011;6448;48.916;8.990;2023-03-23T01:45:58;1.00;;;1.00;;
12768;SDS011;6448;48.916;8.990;2023-03-23T01:47:00;1.20;;;1.10;;
12768;SDS011;6448;48.916;8.990;2023-03-23T01:48:03;1.00;;;1.00;;
12768;SDS011;6448;48.916;8.990;2023-03-23T01:49:09;1.15;;;1.08;;
12768;SDS011;6448;48.916;8.990;2023-03-23T01:50:14;1.10;;;1.00;;
12768;SDS011;6448;48.916;8.990;2023-03-23T01:51:16;1.10;;;1.00;;
12768;SDS011;6448;48.916;8.990;2023-03-23T01:52:25;2.20;;;1.10;;
12768;SDS011;6448;48.916;8.990;2023-03-23T01:53:34;1.00;;;0.90;;
12768;SDS011;6448;48.916;8.990;2023-03-23T01:54:37;1.00;;;1.00;;
12768;SDS011;6448;48.916;8.990;2023-03-23T01:55:41;0.80;;;0.80;;
12768;SDS011;6448;48.916;8.990;2023-03-23T01:56:47;0.82;;;0.82;;
12768;SDS011;6448;48.916;8.990;2023-03-23T01:57:52;0.90;;;0.90;;
12768;SDS011;6448;48.916;8.990;2023-03-23T01:58:56;1.67;;;1.10;;
12768;SDS011;6448;48.916;8.990;2023-03-23T01:59:59;1.20;;;1.10;;
12768;SDS011;6448;48.916;8.990;2023-03-23T02:01:14;1.08;;;0.98;;
12768;SDS011;6448;48.916;8.990;2023-03-23T02:02:17;1.00;;;1.00;;
12768;SDS011;6448;48.916;8.990;2023-03-23T02:03:22;1.20;;;1.10;;
12768;SDS011;6448;48.916;8.990;2023-03-23T02:04:24;1.20;;;1.10;;
12768;SDS011;6448;48.916;8.990;2023-03-23T02:05:27;1.10;;;1.00;;
12768;SDS011;6448;48.916;8.990;2023-03-23T02:06:39;1.08;;;0.98;;
12768;SDS011;6448;48.916;8.990;2023-03-23T02:07:48;1.00;;;1.00;;
12768;SDS011;6448;48.916;8.990;2023-03-23T02:08:50;1.17;;;1.08;;
12768;SDS011;6448;48.916;8.990;2023-03-23T02:09:53;1.00;;;0.90;;
12768;SDS011;6448;48.916;8.990;2023-03-23T02:10:54;1.02;;;1.00;;
12768;SDS011;6448;48.916;8.990;2023-03-23T02:11:58;1.17;;;1.08;;
12768;SDS011;6448;48.916;8.990;2023-03-23T02:12:59;1.27;;;1.17;;
12768;SDS011;6448;48.916;8.990;2023-03-23T02:14:04;1.20;;;1.10;;
12768;SDS011;6448;48.916;8.990;2023-03-23T02:15:05;1.00;;;1.00;;
12768;SDS011;6448;48.916;8.990;2023-03-23T02:16:09;1.10;;;1.00;;
12768;SDS011;6448;48.916;8.990;2023-03-23T02:17:16;1.60;;;1.10;;
12768;SDS011;6448;48.916;8.990;2023-03-23T02:18:30;1.10;;;1.00;;
12768;SDS011;6448;48.916;8.990;2023-03-23T02:19:42;1.10;;;1.00;;
12768;SDS011;6448;48.916;8.990;2023-03-23T02:21:13;1.00;;;1.00;;
12768;SDS011;6448;48.916;8.990;2023-03-23T02:22:43;1.10;;;1.00;;
12768;SDS011;6448;48.916;8.990;2023-03-23T02:24:07;1.05;;;1.00;;
12768;SDS011;6448;48.916;8.990;2023-03-23T02:25:30;1.00;;;1.00;;
12768;SDS011;6448;48.916;8.990;2023-03-23T02:26:47;1.00;;;1.00;;
12768;SDS011;6448;48.916;8.990;2023-03-23T02:28:01;1.00;;;0.93;;
12768;SDS011;6448;48.916;8.990;2023-03-23T02:31:29;1.10;;;1.00;;
12768;SDS011;6448;48.916;8.990;2023-03-23T02:34:14;1.00;;;1.00;;
12768;SDS011;6448;48.916;8.990;2023-03-23T02:35:19;1.20;;;1.10;;
12768;SDS011;6448;48.916;8.990;2023-03-23T02:36:25;1.30;;;1.10;;
12768;SDS011;6448;48.916;8.990;2023-03-23T02:37:32;1.10;;;1.00;;
12768;SDS011;6448;48.916;8.990;2023-03-23T02:38:40;1.08;;;0.98;;
12768;SDS011;6448;48.916;8.990;2023-03-23T02:39:51;1.10;;;1.00;;
12768;SDS011;6448;48.916;8.990;2023-03-23T02:40:58;1.20;;;1.00;;
12768;SDS011;6448;48.916;8.990;2023-03-23T02:42:02;1.70;;;1.10;;
12768;SDS011;6448;48.916;8.990;2023-03-23T02:43:08;1.13;;;1.02;;
12768;SDS011;6448;48.916;8.990;2023-03-23T02:44:12;1.00;;;1.00;;
12768;SDS011;6448;48.916;8.990;2023-03-23T02:45:15;1.20;;;1.10;;
12768;SDS011;6448;48.916;8.990;2023-03-23T02:46:19;1.00;;;0.90;;
12768;SDS011;6448;48.916;8.990;2023-03-23T02:47:23;1.20;;;1.10;;
12768;SDS011;6448;48.916;8.990;2023-03-23T02:48:29;1.15;;;1.05;;
12768;SDS011;6448;48.916;8.990;2023-03-23T02:49:32;1.20;;;1.10;;
12768;SDS011;6448;48.916;8.990;2023-03-23T02:50:36;1.20;;;1.10;;
12768;SDS011;6448;48.916;8.990;2023-03-23T02:51:39;1.35;;;1.10;;
12768;SDS011;6448;48.916;8.990;2023-03-23T02:52:44;1.00;;;1.00;;
12768;SDS011;6448;48.916;8.990;2023-03-23T02:53:49;1.08;;;0.98;;
12768;SDS011;6448;48.916;8.990;2023-03-23T02:54:53;1.20;;;1.10;;
12768;SDS011;6448;48.916;8.990;2023-03-23T02:55:58;1.30;;;1.10;;
12768;SDS011;6448;48.916;8.990;2023-03-23T02:57:03;1.20;;;1.10;;
12768;SDS011;6448;48.916;8.990;2023-03-23T02:58:05;1.00;;;1.00;;
12768;SDS011;6448;48.916;8.990;2023-03-23T02:59:06;1.20;;;1.10;;
12768;SDS011;6448;48.916;8.990;2023-03-23T03:00:11;1.40;;;1.10;;
12768;SDS011;6448;48.916;8.990;2023-03-23T03:01:16;1.20;;;1.10;;
12768;SDS011;6448;48.916;8.990;2023-03-23T03:02:51;1.50;;;1.10;;
12768;SDS011;6448;48.916;8.990;2023-03-23T03:03:56;1.10;;;1.00;;
12768;SDS011;6448;48.916;8.990;2023-03-23T03:05:01;1.20;;;1.10;;
12768;SDS011;6448;48.916;8.990;2023-03-23T03:06:10;1.60;;;1.10;;
12768;SDS011;6448;48.916;8.990;2023-03-23T03:07:28;1.13;;;1.02;;
12768;SDS011;6448;48.916;8.990;2023-03-23T03:08:38;1.15;;;1.10;;
12768;SDS011;6448;48.916;8.990;2023-03-23T03:09:46;1.00;;;1.00;;
12768;SDS011;6448;48.916;8.990;2023-03-23T03:10:52;1.20;;;1.10;;
12768;SDS011;6448;48.916;8.990;2023-03-23T03:12:02;1.20;;;1.10;;
12768;SDS011;6448;48.916;8.990;2023-03-23T03:13:09;1.37;;;1.07;;
12768;SDS011;6448;48.916;8.990;2023-03-23T03:14:18;1.38;;;1.27;;
12768;SDS011;6448;48.916;8.990;2023-03-23T03:15:24;1.23;;;1.13;;
12768;SDS011;6448;48.916;8.990;2023-03-23T03:16:30;1.30;;;1.20;;
12768;SDS011;6448;48.916;8.990;2023-03-23T03:17:36;1.23;;;1.13;;
12768;SDS011;6448;48.916;8.990;2023-03-23T03:18:44;1.20;;;1.10;;
12768;SDS011;6448;48.916;8.990;2023-03-23T03:19:56;1.20;;;1.10;;
12768;SDS011;6448;48.916;8.990;2023-03-23T03:21:01;1.30;;;1.20;;
12768;SDS011;6448;48.916;8.990;2023-03-23T03:22:06;1.20;;;1.10;;
12768;SDS011;6448;48.916;8.990;2023-03-23T03:23:15;1.30;;;1.20;;
12768;SDS011;6448;48.916;8.990;2023-03-23T03:24:20;1.15;;;1.05;;
12768;SDS011;6448;48.916;8.990;2023-03-23T03:25:25;1.50;;;1.25;;
12768;SDS011;6448;48.916;8.990;2023-03-23T03:26:30;1.20;;;1.10;;
12768;SDS011;6448;48.916;8.990;2023-03-23T03:27:51;1.40;;;1.30;;
12768;SDS011;6448;48.916;8.990;2023-03-23T03:29:02;1.30;;;1.20;;
12768;SDS011;6448;48.916;8.990;2023-03-23T03:30:04;1.30;;;1.20;;
12768;SDS011;6448;48.916;8.990;2023-03-23T03:31:09;1.40;;;1.20;;
12768;SDS011;6448;48.916;8.990;2023-03-23T03:32:12;1.30;;;1.20;;
12768;SDS011;6448;48.916;8.990;2023-03-23T03:33:19;1.20;;;1.10;;
12768;SDS011;6448;48.916;8.990;2023-03-23T03:34:26;1.20;;;1.10;;
12768;SDS011;6448;48.916;8.990;2023-03-23T03:35:29;1.30;;;1.20;;
12768;SDS011;6448;48.916;8.990;2023-03-23T03:36:33;1.50;;;1.20;;
12768;SDS011;6448;48.916;8.990;2023-03-23T03:37:38;1.30;;;1.20;;
12768;SDS011;6448;48.916;8.990;2023-03-23T03:38:42;1.35;;;1.20;;
12768;SDS011;6448;48.916;8.990;2023-03-23T03:39:44;1.25;;;1.15;;
12768;SDS011;6448;48.916;8.990;2023-03-23T03:40:46;1.45;;;1.35;;
12768;SDS011;6448;48.916;8.990;2023-03-23T03:41:47;1.17;;;1.07;;
12768;SDS011;6448;48.916;8.990;2023-03-23T03:42:50;1.30;;;1.20;;
12768;SDS011;6448;48.916;8.990;2023-03-23T03:43:51;1.05;;;1.00;;
12768;SDS011;6448;48.916;8.990;2023-03-23T03:44:53;1.40;;;1.30;;
12768;SDS011;6448;48.916;8.990;2023-03-23T03:45:53;1.10;;;1.00;;
12768;SDS011;6448;48.916;8.990;2023-03-23T03:46:55;2.00;;;1.20;;
12768;SDS011;6448;48.916;8.990;2023-03-23T03:47:56;1.30;;;1.20;;
12768;SDS011;6448;48.916;8.990;2023-03-23T03:48:58;1.75;;;1.13;;
12768;SDS011;6448;48.916;8.990;2023-03-23T03:50:00;1.20;;;1.10;;
12768;SDS011;6448;48.916;8.990;2023-03-23T03:51:03;1.20;;;1.10;;
12768;SDS011;6448;48.916;8.990;2023-03-23T03:52:08;1.30;;;1.20;;
12768;SDS011;6448;48.916;8.990;2023-03-23T03:53:14;1.30;;;1.20;;
12768;SDS011;6448;48.916;8.990;2023-03-23T03:54:16;1.27;;;1.17;;
12768;SDS011;6448;48.916;8.990;2023-03-23T03:55:18;1.40;;;1.30;;
12768;SDS011;6448;48.916;8.990;2023-03-23T03:56:21;1.23;;;1.13;;
12768;SDS011;6448;48.916;8.990;2023-03-23T03:57:36;1.30;;;1.20;;
12768;SDS011;6448;48.916;8.990;2023-03-23T03:58:37;1.20;;;1.10;;
12768;SDS011;6448;48.916;8.990;2023-03-23T04:00:15;1.30;;;1.20;;
12768;SDS011;6448;48.916;8.990;2023-03-23T04:01:21;1.10;;;1.00;;
12768;SDS011;6448;48.916;8.990;2023-03-23T04:02:23;1.30;;;1.20;;
12768;SDS011;6448;48.916;8.990;2023-03-23T04:03:26;1.27;;;1.17;;
12768;SDS011;6448;48.916;8.990;2023-03-23T04:04:50;1.30;;;1.20;;
12768;SDS011;6448;48.916;8.990;2023-03-23T04:05:52;1.20;;;1.10;;
12768;SDS011;6448;48.916;8.990;2023-03-23T04:06:57;1.20;;;1.10;;
12768;SDS011;6448;48.916;8.990;2023-03-23T04:07:59;1.08;;;1.08;;
12768;SDS011;6448;48.916;8.990;2023-03-23T04:09:04;1.20;;;1.10;;
12768;SDS011;6448;48.916;8.990;2023-03-23T04:10:08;1.20;;;1.10;;
12768;SDS011;6448;48.916;8.990;2023-03-23T04:11:14;1.10;;;1.10;;
12768;SDS011;6448;48.916;8.990;2023-03-23T04:12:16;1.20;;;1.10;;
12768;SDS011;6448;48.916;8.990;2023-03-23T04:13:43;1.60;;;1.20;;
12768;SDS011;6448;48.916;8.990;2023-03-23T04:14:54;1.20;;;1.10;;
12768;SDS011;6448;48.916;8.990;2023-03-23T04:15:57;1.20;;;1.10;;
12768;SDS011;6448;48.916;8.990;2023-03-23T04:17:00;1.02;;;1.02;;
12768;SDS011;6448;48.916;8.990;2023-03-23T04:18:01;1.10;;;1.00;;
12768;SDS011;6448;48.916;8.990;2023-03-23T04:19:04;1.20;;;1.10;;
12768;SDS011;6448;48.916;8.990;2023-03-23T04:20:06;1.20;;;1.10;;
12768;SDS011;6448;48.916;8.990;2023-03-23T04:21:15;1.25;;;1.15;;
12768;SDS011;6448;48.916;8.990;2023-03-23T04:22:19;1.27;;;1.17;;
12768;SDS011;6448;48.916;8.990;2023-03-23T04:23:25;1.10;;;1.00;;
12768;SDS011;6448;48.916;8.990;2023-03-23T04:24:27;1.27;;;1.15;;
12768;SDS011;6448;48.916;8.990;2023-03-23T04:25:32;1.20;;;1.10;;
12768;SDS011;6448;48.916;8.990;2023-03-23T04:26:33;1.27;;;1.17;;
12768;SDS011;6448;48.916;8.990;2023-03-23T04:27:43;1.48;;;1.13;;
12768;SDS011;6448;48.916;8.990;2023-03-23T04:28:46;0.90;;;0.90;;
12768;SDS011;6448;48.916;8.990;2023-03-23T04:30:08;1.30;;;1.20;;
12768;SDS011;6448;48.916;8.990;2023-03-23T04:31:20;1.20;;;1.10;;
12768;SDS011;6448;48.916;8.990;2023-03-23T04:32:31;1.20;;;1.10;;
12768;SDS011;6448;48.916;8.990;2023-03-23T04:33:32;1.23;;;1.13;;
12768;SDS011;6448;48.916;8.990;2023-03-23T04:34:34;1.33;;;1.02;;
12768;SDS011;6448;48.916;8.990;2023-03-23T04:35:35;1.10;;;1.00;;
12768;SDS011;6448;48.916;8.990;2023-03-23T04:36:43;1.45;;;1.10;;
12768;SDS011;6448;48.916;8.990;2023-03-23T04:37:51;1.20;;;1.10;;
12768;SDS011;6448;48.916;8.990;2023-03-23T04:38:54;1.20;;;1.10;;
12768;SDS011;6448;48.916;8.990;2023-03-23T04:39:57;1.23;;;1.13;;
12768;SDS011;6448;48.916;8.990;2023-03-23T04:41:01;1.13;;;1.10;;
12768;SDS011;6448;48.916;8.990;2023-03-23T04:42:14;1.20;;;1.10;;
12768;SDS011;6448;48.916;8.990;2023-03-23T04:43:35;1.20;;;1.10;;
12768;SDS011;6448;48.916;8.990;2023-03-23T04:44:59;1.05;;;1.00;;
12768;SDS011;6448;48.916;8.990;2023-03-23T04:46:07;1.10;;;1.00;;
12768;SDS011;6448;48.916;8.990;2023-03-23T04:47:10;1.58;;;1.02;;
12768;SDS011;6448;48.916;8.990;2023-03-23T04:48:19;1.20;;;1.10;;
12768;SDS011;6448;48.916;8.990;2023-03-23T04:49:32;1.20;;;1.10;;
12768;SDS011;6448;48.916;8.990;2023-03-23T04:50:45;1.27;;;1.17;;
12768;SDS011;6448;48.916;8.990;2023-03-23T04:51:55;1.00;;;1.00;;
12768;SDS011;6448;48.916;8.990;2023-03-23T04:53:16;1.02;;;1.00;;
12768;SDS011;6448;48.916;8.990;2023-03-23T04:54:19;1.20;;;1.10;;
12768;SDS011;6448;48.916;8.990;2023-03-23T04:55:24;1.50;;;1.15;;
12768;SDS011;6448;48.916;8.990;2023-03-23T04:56:31;1.20;;;1.10;;
12768;SDS011;6448;48.916;8.990;2023-03-23T04:57:37;1.20;;;1.10;;
12768;SDS011;6448;48.916;8.990;2023-03-23T04:59:06;1.08;;;1.00;;
12768;SDS011;6448;48.916;8.990;2023-03-23T05:00:13;1.20;;;1.10;;
12768;SDS011;6448;48.916;8.990;2023-03-23T05:01:20;1.25;;;1.15;;
12768;SDS011;6448;48.916;8.990;2023-03-23T05:02:32;1.30;;;1.20;;
12768;SDS011;6448;48.916;8.990;2023-03-23T05:03:34;1.23;;;1.13;;
12768;SDS011;6448;48.916;8.990;2023-03-23T05:04:35;1.20;;;1.10;;
12768;SDS011;6448;48.916;8.990;2023-03-23T05:05:42;0.90;;;0.90;;
12768;SDS011;6448;48.916;8.990;2023-03-23T05:06:47;1.15;;;1.10;;
12768;SDS011;6448;48.916;8.990;2023-03-23T05:07:56;1.20;;;1.10;;
12768;SDS011;6448;48.916;8.990;2023-03-23T05:09:02;1.20;;;1.10;;
12768;SDS011;6448;48.916;8.990;2023-03-23T05:10:04;1.20;;;1.10;;
12768;SDS011;6448;48.916;8.990;2023-03-23T05:11:08;1.30;;;1.20;;
12768;SDS011;6448;48.916;8.990;2023-03-23T05:12:12;1.10;;;1.10;;
12768;SDS011;6448;48.916;8.990;2023-03-23T05:13:25;1.25;;;1.13;;
12768;SDS011;6448;48.916;8.990;2023-03-23T05:14:31;1.25;;;1.08;;
12768;SDS011;6448;48.916;8.990;2023-03-23T05:15:43;1.25;;;1.00;;
12768;SDS011;6448;48.916;8.990;2023-03-23T05:16:45;1.20;;;1.05;;
12768;SDS011;6448;48.916;8.990;2023-03-23T05:17:50;1.30;;;1.20;;
12768;SDS011;6448;48.916;8.990;2023-03-23T05:18:54;1.20;;;1.10;;
12768;SDS011;6448;48.916;8.990;2023-03-23T05:19:57;1.20;;;1.10;;
12768;SDS011;6448;48.916;8.990;2023-03-23T05:21:25;0.90;;;0.90;;
12768;SDS011;6448;48.916;8.990;2023-03-23T05:22:28;0.90;;;0.90;;
12768;SDS011;6448;48.916;8.990;2023-03-23T05:23:32;1.10;;;1.00;;
12768;SDS011;6448;48.916;8.990;2023-03-23T05:24:45;1.17;;;1.08;;
12768;SDS011;6448;48.916;8.990;2023-03-23T05:25:52;1.00;;;1.00;;
12768;SDS011;6448;48.916;8.990;2023-03-23T05:26:54;1.20;;;1.10;;
12768;SDS011;6448;48.916;8.990;2023-03-23T05:28:03;1.10;;;1.00;;
12768;SDS011;6448;48.916;8.990;2023-03-23T05:29:22;1.13;;;1.02;;
12768;SDS011;6448;48.916;8.990;2023-03-23T05:30:31;1.10;;;1.00;;
12768;SDS011;6448;48.916;8.990;2023-03-23T05:31:33;1.45;;;1.10;;
12768;SDS011;6448;48.916;8.990;2023-03-23T05:32:34;1.30;;;1.20;;
12768;SDS011;6448;48.916;8.990;2023-03-23T05:33:52;1.02;;;1.00;;
12768;SDS011;6448;48.916;8.990;2023-03-23T05:35:02;1.20;;;1.10;;
12768;SDS011;6448;48.916;8.990;2023-03-23T05:36:05;1.20;;;1.10;;
12768;SDS011;6448;48.916;8.990;2023-03-23T05:37:25;1.20;;;1.10;;
12768;SDS011;6448;48.916;8.990;2023-03-23T05:38:39;1.20;;;1.10;;
12768;SDS011;6448;48.916;8.990;2023-03-23T05:39:46;1.10;;;1.10;;
12768;SDS011;6448;48.916;8.990;2023-03-23T05:41:06;1.40;;;1.10;;
12768;SDS011;6448;48.916;8.990;2023-03-23T05:42:13;1.15;;;1.08;;
12768;SDS011;6448;48.916;8.990;2023-03-23T05:43:29;1.07;;;1.00;;
12768;SDS011;6448;48.916;8.990;2023-03-23T05:44:51;1.40;;;1.20;;
12768;SDS011;6448;48.916;8.990;2023-03-23T05:45:53;1.30;;;1.20;;
12768;SDS011;6448;48.916;8.990;2023-03-23T05:46:55;1.20;;;1.10;;
12768;SDS011;6448;48.916;8.990;2023-03-23T05:47:56;1.20;;;1.10;;
12768;SDS011;6448;48.916;8.990;2023-03-23T05:49:00;1.30;;;1.20;;
12768;SDS011;6448;48.916;8.990;2023-03-23T05:50:08;1.30;;;1.20;;
12768;SDS011;6448;48.916;8.990;2023-03-23T05:51:11;1.30;;;1.20;;
12768;SDS011;6448;48.916;8.990;2023-03-23T05:52:16;1.30;;;1.20;;
12768;SDS011;6448;48.916;8.990;2023-03-23T05:53:19;1.30;;;1.20;;
12768;SDS011;6448;48.916;8.990;2023-03-23T05:54:19;1.30;;;1.20;;
12768;SDS011;6448;48.916;8.990;2023-03-23T05:55:25;1.30;;;1.20;;
12768;SDS011;6448;48.916;8.990;2023-03-23T05:56:36;1.20;;;1.10;;
12768;SDS011;6448;48.916;8.990;2023-03-23T05:57:50;1.20;;;1.10;;
12768;SDS011;6448;48.916;8.990;2023-03-23T05:59:05;1.27;;;1.10;;
12768;SDS011;6448;48.916;8.990;2023-03-23T06:00:09;1.20;;;1.10;;
12768;SDS011;6448;48.916;8.990;2023-03-23T06:01:22;1.30;;;1.20;;
12768;SDS011;6448;48.916;8.990;2023-03-23T06:02:24;1.30;;;1.20;;
12768;SDS011;6448;48.916;8.990;2023-03-23T06:03:29;1.27;;;1.00;;
12768;SDS011;6448;48.916;8.990;2023-03-23T06:04:50;1.00;;;1.00;;
12768;SDS011;6448;48.916;8.990;2023-03-23T06:06:00;1.00;;;1.00;;
12768;SDS011;6448;48.916;8.990;2023-03-23T06:07:09;1.30;;;1.20;;
12768;SDS011;6448;48.916;8.990;2023-03-23T06:08:15;1.20;;;1.10;;
12768;SDS011;6448;48.916;8.990;2023-03-23T06:09:16;1.20;;;1.10;;
12768;SDS011;6448;48.916;8.990;2023-03-23T06:10:38;1.00;;;1.00;;
12768;SDS011;6448;48.916;8.990;2023-03-23T06:11:40;1.20;;;1.10;;
12768;SDS011;6448;48.916;8.990;2023-03-23T06:13:00;1.20;;;1.10;;
12768;SDS011;6448;48.916;8.990;2023-03-23T06:14:07;1.10;;;1.00;;
12768;SDS011;6448;48.916;8.990;2023-03-23T06:15:08;1.30;;;1.20;;
12768;SDS011;6448;48.916;8.990;2023-03-23T06:16:29;1.13;;;1.05;;
12768;SDS011;6448;48.916;8.990;2023-03-23T06:17:33;1.17;;;1.07;;
12768;SDS011;6448;48.916;8.990;2023-03-23T06:18:34;1.30;;;1.10;;
12768;SDS011;6448;48.916;8.990;2023-03-23T06:19:48;1.10;;;1.00;;
12768;SDS011;6448;48.916;8.990;2023-03-23T06:20:51;1.23;;;1.13;;
12768;SDS011;6448;48.916;8.990;2023-03-23T06:22:04;1.20;;;1.10;;
12768;SDS011;6448;48.916;8.990;2023-03-23T06:23:29;1.30;;;1.20;;
12768;SDS011;6448;48.916;8.990;2023-03-23T06:24:31;1.13;;;1.02;;
12768;SDS011;6448;48.916;8.990;2023-03-23T06:25:33;1.20;;;1.10;;
12768;SDS011;6448;48.916;8.990;2023-03-23T06:26:37;1.07;;;1.07;;
12768;SDS011;6448;48.916;8.990;2023-03-23T06:27:43;1.40;;;1.10;;
12768;SDS011;6448;48.916;8.990;2023-03-23T06:28:47;1.20;;;1.10;;
12768;SDS011;6448;48.916;8.990;2023-03-23T06:29:48;1.15;;;1.05;;
12768;SDS011;6448;48.916;8.990;2023-03-23T06:30:50;1.30;;;1.20;;
12768;SDS011;6448;48.916;8.990;2023-03-23T06:31:52;1.17;;;1.08;;
12768;SDS011;6448;48.916;8.990;2023-03-23T06:32:57;1.30;;;1.20;;
12768;SDS011;6448;48.916;8.990;2023-03-23T06:34:18;1.30;;;1.20;;
12768;SDS011;6448;48.916;8.990;2023-03-23T06:35:39;1.20;;;1.02;;
12768;SDS011;6448;48.916;8.990;2023-03-23T06:36:48;1.02;;;1.00;;
12768;SDS011;6448;48.916;8.990;2023-03-23T06:37:54;1.17;;;1.08;;
12768;SDS011;6448;48.916;8.990;2023-03-23T06:39:03;1.37;;;1.10;;
12768;SDS011;6448;48.916;8.990;2023-03-23T06:40:19;1.27;;;1.17;;
12768;SDS011;6448;48.916;8.990;2023-03-23T06:41:27;1.10;;;1.00;;
12768;SDS011;6448;48.916;8.990;2023-03-23T06:42:30;1.20;;;1.10;;
12768;SDS011;6448;48.916;8.990;2023-03-23T06:43:52;1.40;;;1.30;;
12768;SDS011;6448;48.916;8.990;2023-03-23T06:44:59;1.20;;;1.10;;
12768;SDS011;6448;48.916;8.990;2023-03-23T06:46:01;1.30;;;1.20;;
12768;SDS011;6448;48.916;8.990;2023-03-23T06:48:36;1.10;;;1.00;;
12768;SDS011;6448;48.916;8.990;2023-03-23T06:49:39;1.08;;;1.02;;
12768;SDS011;6448;48.916;8.990;2023-03-23T06:50:50;1.20;;;1.10;;
12768;SDS011;6448;48.916;8.990;2023-03-23T06:51:54;1.60;;;1.13;;